Bahla, Oman
Current Conditions -  °F | °C
As of 2:52 AM on Tuesday 21 Oct 2014 (Local Time) from EQMN Reporting Station
Clear Clear  
Wind Chill: 79°   Ceiling: Unl
Heat Index: 82°   Visibility: 4mi
Dew Point: 73°   Wind: 3mph
Humidity: 83%   Direction: 270°W
Pressure: 29.88"   Gusts: NA
Location:  22.97°N, 57.3°E
Report Text: EQMN 202252Z AUTO 27003KT 6000 SKC 26/23 Q1012
Loading
Personal Weather Stations






























Interactive Weather Map
Tropical Storm Tracking
New forecast layout! Learn more

10-Day Weather Forecast

Advertisements
Track Severe Weather on mobile